Time;durP1;ratioP1;P1;durP2;ratioP2;P2;SDS_P1;SDS_P2;PMS_P1;PMS_P2;Temp;Humidity;BMP_temperature;BMP_pressure;BME280_temperature;BME280_humidity;BME280_pressure;Samples;Min_cycle;Max_cycle;Signal;HPM_P1;HPM_P2
2023/04/01 00:01:28;;;;;;;32.63;13.45;;;;;;;12.71;59.31;94175.69;4994858;28;20303;-68
2023/04/01 00:03:55;;;;;;;26.35;15.00;;;;;;;12.80;59.37;94182.84;4993542;28;20257;-69
2023/04/01 00:06:23;;;;;;;29.02;13.98;;;;;;;12.63;59.68;94187.22;4995250;28;20208;-69
2023/04/01 00:08:49;;;;;;;24.67;14.07;;;;;;;12.63;59.57;94182.94;4995858;28;20386;-67
2023/04/01 00:11:17;;;;;;;29.80;14.63;;;;;;;12.62;60.06;94188.94;4994247;28;20303;-68
2023/04/01 00:13:45;;;;;;;27.23;14.98;;;;;;;12.54;60.19;94181.72;4995828;28;20299;-70
2023/04/01 00:16:12;;;;;;;28.55;14.80;;;;;;;12.56;60.65;94192.66;4994597;28;20955;-67
2023/04/01 00:18:39;;;;;;;24.85;15.00;;;;;;;12.51;60.37;94181.06;4994002;28;20233;-67
2023/04/01 00:21:06;;;;;;;26.95;14.00;;;;;;;12.50;60.28;94181.97;4996119;28;20290;-66
2023/04/01 00:23:33;;;;;;;21.58;15.13;;;;;;;12.67;60.07;94178.50;4997099;28;20818;-65
2023/04/01 00:26:00;;;;;;;22.67;13.80;;;;;;;12.62;59.49;94173.63;4998394;28;21246;-66
2023/04/01 00:28:28;;;;;;;28.13;13.57;;;;;;;12.52;60.17;94178.44;4996911;28;20295;-67
2023/04/01 00:30:56;;;;;;;29.80;13.13;;;;;;;12.45;60.48;94173.75;4998239;28;20322;-69
2023/04/01 00:33:22;;;;;;;22.80;13.82;;;;;;;12.46;60.43;94171.13;4996631;28;20330;-66
2023/04/01 00:35:49;;;;;;;19.80;12.98;;;;;;;12.35;60.61;94172.63;4994441;28;20326;-63
2023/04/01 00:38:18;;;;;;;19.55;11.70;;;;;;;12.42;60.25;94168.81;4996716;28;20630;-68
2023/04/01 00:40:46;;;;;;;21.48;13.10;;;;;;;12.30;60.54;94161.88;4994112;28;20204;-69
2023/04/01 00:43:17;;;;;;;24.20;12.77;;;;;;;12.29;61.25;94157.69;4997014;28;20680;-67
2023/04/01 00:45:45;;;;;;;21.60;12.55;;;;;;;12.26;61.32;94158.66;4997304;28;20208;-65
2023/04/01 00:48:17;;;;;;;23.63;11.85;;;;;;;11.88;62.14;94153.06;5001143;28;20707;-63
2023/04/01 00:50:48;;;;;;;18.70;11.52;;;;;;;11.67;63.33;94154.16;5003189;28;20323;-68
2023/04/01 00:53:15;;;;;;;20.33;13.48;;;;;;;11.51;64.15;94141.44;4999506;28;20204;-70
2023/04/01 00:55:47;;;;;;;23.67;11.77;;;;;;;11.44;64.60;94143.47;4997692;28;20294;-67
2023/04/01 00:58:18;;;;;;;18.77;10.48;;;;;;;11.42;63.97;94135.06;4997025;28;20208;-69
2023/04/01 01:00:48;;;;;;;19.00;10.77;;;;;;;11.43;64.20;94125.72;4995621;28;20298;-62
2023/04/01 01:03:16;;;;;;;18.70;11.55;;;;;;;11.47;64.11;94127.22;4996330;28;21716;-66
2023/04/01 01:06:11;;;;;;;21.98;11.43;;;;;;;11.24;65.73;94125.84;4997260;28;20320;-68
2023/04/01 01:08:56;;;;;;;14.90;10.63;;;;;;;11.27;65.03;94115.53;4995549;28;20208;-65
2023/04/01 01:11:30;;;;;;;16.70;10.35;;;;;;;11.15;65.78;94111.06;4997401;28;20238;-65
2023/04/01 01:14:04;;;;;;;17.73;10.30;;;;;;;11.10;66.12;94106.22;4996986;28;20208;-68
2023/04/01 01:16:35;;;;;;;15.57;10.43;;;;;;;11.14;65.80;94101.78;4996832;28;20286;-68
2023/04/01 01:19:11;;;;;;;18.80;10.00;;;;;;;11.09;66.29;94098.69;4997923;28;20290;-66
2023/04/01 01:22:04;;;;;;;22.63;10.75;;;;;;;11.15;66.34;94103.44;4996306;28;20765;-66
2023/04/01 01:24:52;;;;;;;22.65;10.82;;;;;;;11.11;66.96;94099.41;4997433;28;20299;-69
2023/04/01 01:27:20;;;;;;;16.65;10.63;;;;;;;11.37;66.38;94086.19;4996215;28;20311;-66
2023/04/01 01:30:21;;;;;;;15.70;10.77;;;;;;;11.40;66.14;94080.09;4997394;28;20322;-68
2023/04/01 01:33:19;;;;;;;15.73;10.45;;;;;;;11.43;66.21;94080.75;4996041;28;20702;-64
2023/04/01 01:35:50;;;;;;;16.25;11.02;;;;;;;11.40;66.29;94083.47;4974305;28;20204;-69
2023/04/01 01:38:19;;;;;;;25.70;10.70;;;;;;;11.31;66.48;94083.97;4996251;28;20375;-65
2023/04/01 01:40:51;;;;;;;16.75;9.90;;;;;;;11.40;66.32;94085.19;4996604;28;20829;-68
2023/04/01 01:43:23;;;;;;;17.92;10.95;;;;;;;11.41;65.91;94085.09;4996579;28;20204;-69
2023/04/01 01:45:55;;;;;;;14.43;9.52;;;;;;;11.51;65.92;94081.19;4994860;28;20322;-67
2023/04/01 01:48:24;;;;;;;16.35;10.00;;;;;;;11.53;65.82;94094.66;4996135;28;20244;-66
2023/04/01 01:50:52;;;;;;;20.08;9.38;;;;;;;11.64;65.39;94086.44;4997444;28;20256;-63
2023/04/01 01:53:19;;;;;;;16.52;9.48;;;;;;;11.59;65.51;94083.34;4996692;28;20290;-68
2023/04/01 01:55:47;;;;;;;15.88;9.45;;;;;;;11.54;65.99;94081.03;4996008;28;20342;-69
2023/04/01 01:58:20;;;;;;;15.68;9.93;;;;;;;11.63;65.52;94076.38;4995912;28;20235;-67
2023/04/01 02:00:51;;;;;;;19.48;10.52;;;;;;;11.72;65.47;94078.41;4996790;28;20209;-67
2023/04/01 02:03:21;;;;;;;18.60;10.32;;;;;;;11.72;65.59;94078.41;4995876;28;20852;-68
2023/04/01 02:05:50;;;;;;;15.43;9.93;;;;;;;11.81;65.65;94075.41;4995420;28;20306;-69
2023/04/01 02:08:23;;;;;;;19.13;10.48;;;;;;;11.70;66.14;94070.84;4995486;28;20319;-69
2023/04/01 02:10:58;;;;;;;21.30;11.45;;;;;;;11.82;65.44;94056.69;4994202;28;20259;-68
2023/04/01 02:13:31;;;;;;;15.60;9.60;;;;;;;11.67;65.76;94067.63;4994877;28;20345;-68
2023/04/01 02:16:04;;;;;;;13.90;9.85;;;;;;;11.64;65.99;94058.44;4994233;28;20629;-66
2023/04/01 02:18:34;;;;;;;15.10;9.45;;;;;;;11.88;65.22;94056.31;4995191;28;20269;-66
2023/04/01 02:21:01;;;;;;;18.58;10.05;;;;;;;11.91;64.77;94056.97;4995681;28;20208;-67
2023/04/01 02:23:30;;;;;;;18.50;9.40;;;;;;;11.77;65.06;94049.28;4996378;28;20303;-68
2023/04/01 02:25:56;;;;;;;17.05;9.00;;;;;;;11.82;64.44;94052.41;4995185;28;20212;-65
2023/04/01 02:28:25;;;;;;;16.98;9.75;;;;;;;11.86;64.52;94053.06;4995039;28;20828;-69
2023/04/01 02:30:53;;;;;;;14.88;9.52;;;;;;;12.02;64.24;94058.97;4995729;28;21025;-65
2023/04/01 02:33:21;;;;;;;14.73;9.63;;;;;;;12.01;64.27;94062.41;4995869;28;20295;-67
2023/04/01 02:35:48;;;;;;;17.58;10.20;;;;;;;12.10;63.52;94046.63;4995775;28;20212;-69
2023/04/01 02:38:15;;;;;;;15.68;9.27;;;;;;;12.03;63.56;94060.59;4995713;28;20367;-66
2023/04/01 02:40:46;;;;;;;11.60;8.68;;;;;;;12.01;63.85;94057.31;4994906;28;20240;-68
2023/04/01 02:43:13;;;;;;;15.63;10.27;;;;;;;12.05;63.78;94068.97;4995842;28;20349;-69
2023/04/01 02:45:40;;;;;;;18.60;9.52;;;;;;;12.07;63.81;94072.25;4995537;28;20291;-67
2023/04/01 02:48:07;;;;;;;14.98;9.05;;;;;;;12.04;64.10;94067.34;4995213;28;20299;-67
2023/04/01 02:50:34;;;;;;;17.45;10.48;;;;;;;12.09;63.60;94077.28;4995113;28;20318;-64
2023/04/01 02:53:02;;;;;;;28.92;14.32;;;;;;;11.97;63.72;94086.38;4995112;28;20242;-68
2023/04/01 02:55:29;;;;;;;25.52;14.45;;;;;;;11.77;64.43;94090.03;4994413;28;20289;-67
2023/04/01 02:57:58;;;;;;;27.15;14.00;;;;;;;11.95;64.06;94078.00;4996385;28;20247;-68
2023/04/01 03:00:25;;;;;;;25.80;13.77;;;;;;;11.84;64.73;94080.34;4995257;28;20199;-63
2023/04/01 03:02:51;;;;;;;22.05;13.65;;;;;;;11.72;64.94;94080.94;4995858;28;20243;-67
2023/04/01 03:05:18;;;;;;;22.25;14.55;;;;;;;11.82;64.94;94087.22;4996120;28;20311;-66
2023/04/01 03:07:45;;;;;;;28.73;15.57;;;;;;;11.65;65.18;94099.97;4995089;28;20231;-66
2023/04/01 03:10:12;;;;;;;27.80;16.75;;;;;;;11.86;65.28;94086.16;4995496;28;20323;-69
2023/04/01 03:12:39;;;;;;;29.63;16.90;;;;;;;11.70;65.10;94103.09;4996428;28;20231;-68
2023/04/01 03:15:10;;;;;;;26.63;16.08;;;;;;;11.76;65.15;94097.69;4995352;28;20319;-69
2023/04/01 03:17:37;;;;;;;31.42;16.80;;;;;;;11.76;65.33;94096.00;4995354;28;20211;-65
2023/04/01 03:20:04;;;;;;;23.90;16.40;;;;;;;11.56;65.62;94099.59;4995702;28;20342;-67
2023/04/01 03:22:31;;;;;;;26.25;14.50;;;;;;;11.48;66.34;94099.16;4996353;28;20294;-68
2023/04/01 03:24:58;;;;;;;25.55;14.52;;;;;;;11.61;66.14;94098.53;4996372;28;20851;-67
2023/04/01 03:27:24;;;;;;;30.50;13.88;;;;;;;11.57;66.06;94108.03;4995389;28;20255;-69
2023/04/01 03:29:51;;;;;;;20.40;14.45;;;;;;;11.51;66.43;94099.00;4996036;28;20304;-67
2023/04/01 03:32:19;;;;;;;26.05;13.13;;;;;;;11.43;66.67;94106.19;4996167;28;20430;-64
2023/04/01 03:34:46;;;;;;;26.75;12.48;;;;;;;11.55;66.17;94094.56;4995171;28;20212;-68
2023/04/01 03:37:13;;;;;;;23.92;12.70;;;;;;;11.48;66.77;94090.69;4995862;28;20302;-70
2023/04/01 03:39:40;;;;;;;22.33;13.05;;;;;;;11.49;66.97;94085.53;4995241;28;20297;-66
2023/04/01 03:42:07;;;;;;;23.48;13.07;;;;;;;11.54;68.05;94072.56;4996845;28;20211;-65
2023/04/01 03:44:34;;;;;;;30.08;12.82;;;;;;;11.63;68.06;94056.81;4995594;28;20209;-65
2023/04/01 03:47:01;;;;;;;17.05;10.45;;;;;;;11.66;68.22;94032.91;4994361;28;20341;-67
2023/04/01 03:49:29;;;;;;;21.27;10.80;;;;;;;11.75;66.44;94029.88;4996038;28;20357;-68
2023/04/01 03:51:56;;;;;;;21.85;9.73;;;;;;;11.62;66.57;94028.91;4995147;28;20678;-65
2023/04/01 03:54:23;;;;;;;16.08;9.75;;;;;;;11.48;66.65;94019.47;4995996;28;20323;-68
2023/04/01 03:56:49;;;;;;;14.85;9.48;;;;;;;11.52;67.01;94010.78;4997961;28;21891;-66
2023/04/01 03:59:16;;;;;;;17.75;9.77;;;;;;;11.51;66.39;93999.78;4999520;28;20207;-69
2023/04/01 04:01:43;;;;;;;16.95;9.20;;;;;;;11.54;66.75;93989.44;4998187;28;20232;-70
2023/04/01 04:04:12;;;;;;;16.40;9.88;;;;;;;11.61;67.10;93992.47;5000658;28;20679;-70
2023/04/01 04:06:40;;;;;;;9.77;8.10;;;;;;;11.59;67.34;93984.09;4998482;28;20208;-70
2023/04/01 04:09:07;;;;;;;15.05;9.57;;;;;;;11.67;66.72;93978.56;4999737;28;20346;-67
2023/04/01 04:11:34;;;;;;;17.70;9.10;;;;;;;11.71;66.48;93983.41;4999403;28;20259;-63
2023/04/01 04:14:01;;;;;;;18.05;8.93;;;;;;;11.66;66.59;93969.28;4998194;28;20212;-68
2023/04/01 04:16:28;;;;;;;15.60;8.43;;;;;;;11.67;65.70;93968.41;4999294;28;20231;-68
2023/04/01 04:18:55;;;;;;;12.52;7.78;;;;;;;11.55;66.28;93967.34;4999301;28;20892;-68
2023/04/01 04:21:22;;;;;;;14.18;8.55;;;;;;;11.46;67.01;93961.03;4998424;28;20274;-64
2023/04/01 04:23:50;;;;;;;11.10;7.80;;;;;;;11.49;67.25;93955.78;4998720;28;20215;-64
2023/04/01 04:26:17;;;;;;;19.90;8.75;;;;;;;11.63;66.58;93944.03;4997734;28;20207;-69
2023/04/01 04:28:43;;;;;;;12.88;9.10;;;;;;;11.86;66.09;93953.78;4997142;28;20299;-64
2023/04/01 04:31:10;;;;;;;14.73;8.82;;;;;;;11.73;65.85;93956.16;4999082;28;20255;-68
2023/04/01 04:33:37;;;;;;;15.75;8.80;;;;;;;11.71;66.45;93967.31;4997995;28;20589;-68
2023/04/01 04:36:05;;;;;;;15.45;8.93;;;;;;;11.43;66.19;93962.91;4998631;28;20289;-67
2023/04/01 04:38:32;;;;;;;24.10;11.68;;;;;;;11.33;66.96;93941.44;4997587;28;20719;-67
2023/04/01 04:41:00;;;;;;;19.65;8.43;;;;;;;11.47;66.55;93936.41;4998516;28;20299;-69
2023/04/01 04:43:26;;;;;;;11.85;7.60;;;;;;;11.51;66.11;93931.09;4999333;28;20298;-64
2023/04/01 04:45:53;;;;;;;13.63;7.80;;;;;;;11.43;66.42;93940.84;4998256;28;20697;-66
2023/04/01 04:48:20;;;;;;;11.30;8.48;;;;;;;11.40;66.58;93943.56;4998871;28;20247;-67
2023/04/01 04:50:47;;;;;;;13.07;8.23;;;;;;;11.54;66.48;93936.00;4997310;28;20672;-67
2023/04/01 04:53:15;;;;;;;12.57;7.72;;;;;;;11.65;66.32;93916.75;4999678;28;20295;-70
2023/04/01 04:55:44;;;;;;;7.93;7.13;;;;;;;11.84;65.20;93918.25;4998400;28;20215;-65
2023/04/01 04:58:13;;;;;;;8.45;7.65;;;;;;;11.84;65.06;93914.88;4997861;28;20215;-65
2023/04/01 05:00:39;;;;;;;16.98;8.25;;;;;;;11.72;64.59;93923.16;4998821;28;20207;-67
2023/04/01 05:03:06;;;;;;;15.30;7.10;;;;;;;11.65;65.02;93924.41;4996874;28;20662;-68
2023/04/01 05:05:35;;;;;;;14.13;7.90;;;;;;;11.70;65.62;93902.88;4998292;28;20673;-65
2023/04/01 05:08:01;;;;;;;11.77;7.65;;;;;;;11.87;65.19;93912.97;4997415;28;20289;-68
2023/04/01 05:10:28;;;;;;;12.07;7.30;;;;;;;12.07;65.08;93899.09;4997899;28;20285;-70
2023/04/01 05:12:55;;;;;;;9.55;7.30;;;;;;;12.07;63.26;93895.75;4997472;28;20212;-69
2023/04/01 05:15:23;;;;;;;12.98;8.23;;;;;;;12.01;63.48;93888.44;4997312;28;21062;-67
2023/04/01 05:17:50;;;;;;;17.83;8.13;;;;;;;11.94;64.26;93900.69;4997408;28;20270;-68
2023/04/01 05:20:17;;;;;;;18.52;9.77;;;;;;;12.00;65.22;93882.53;4997669;28;20326;-71
2023/04/01 05:22:44;;;;;;;12.07;9.02;;;;;;;12.12;65.12;93875.94;4997911;28;20232;-70
2023/04/01 05:25:11;;;;;;;14.40;8.88;;;;;;;12.28;64.18;93879.22;4997465;28;20239;-70
2023/04/01 05:27:37;;;;;;;14.13;9.15;;;;;;;12.51;63.21;93858.28;4996391;28;20725;-67
2023/04/01 05:30:05;;;;;;;24.08;8.77;;;;;;;12.82;61.96;93867.44;4998254;28;20244;-63
2023/04/01 05:32:33;;;;;;;13.60;8.05;;;;;;;14.07;59.04;93862.03;4996278;28;20739;-69
2023/04/01 05:35:00;;;;;;;18.17;9.00;;;;;;;15.99;54.83;93881.88;4999082;28;20222;-66
2023/04/01 05:37:27;;;;;;;19.55;9.82;;;;;;;17.85;49.95;93868.34;5000190;28;20383;-67
2023/04/01 05:39:53;;;;;;;19.20;9.35;;;;;;;19.01;46.55;93856.94;4999060;28;20335;-66
2023/04/01 05:42:20;;;;;;;21.38;10.63;;;;;;;20.69;43.34;93860.88;5000999;28;20247;-67
2023/04/01 05:44:47;;;;;;;20.17;11.10;;;;;;;22.05;38.94;93853.16;4997310;28;20295;-69
2023/04/01 05:47:14;;;;;;;21.05;10.80;;;;;;;22.73;37.03;93853.31;4998678;28;20816;-71
2023/04/01 05:49:42;;;;;;;19.67;10.63;;;;;;;22.96;35.18;93849.22;4997909;28;20301;-70
2023/04/01 05:52:09;;;;;;;18.20;10.13;;;;;;;23.05;35.09;93832.72;4997416;28;20358;-69
2023/04/01 05:54:36;;;;;;;16.60;9.48;;;;;;;23.93;33.83;93840.09;4996583;28;20265;-69
2023/04/01 05:57:03;;;;;;;16.70;9.43;;;;;;;24.61;31.80;93850.13;4997142;28;20232;-71
2023/04/01 05:59:31;;;;;;;13.15;8.50;;;;;;;24.85;31.61;93837.06;4998097;28;20248;-69
2023/04/01 06:01:58;;;;;;;19.75;7.57;;;;;;;24.00;31.30;93851.47;4994665;28;20693;-67
2023/04/01 06:04:25;;;;;;;12.25;8.05;;;;;;;23.54;32.10;93847.66;4996059;28;20304;-69
2023/04/01 06:06:53;;;;;;;11.15;6.78;;;;;;;24.25;30.88;93844.50;4997234;28;20212;-72
2023/04/01 06:09:26;;;;;;;14.55;7.45;;;;;;;26.00;28.94;93835.53;4996149;28;20327;-64
2023/04/01 06:12:09;;;;;;;12.30;7.28;;;;;;;27.58;26.70;93840.44;4996491;28;20811;-67
2023/04/01 06:14:47;;;;;;;10.20;5.50;;;;;;;26.85;26.30;93830.06;4996585;28;20266;-65
2023/04/01 06:17:27;;;;;;;14.05;5.35;;;;;;;24.71;28.75;93832.56;4997403;28;20231;-72
2023/04/01 06:19:59;;;;;;;11.52;5.72;;;;;;;22.14;32.43;93848.88;4995639;28;20208;-67
2023/04/01 06:22:53;;;;;;;12.73;5.45;;;;;;;21.09;34.77;93840.84;4995587;28;20203;-73
2023/04/01 06:25:48;;;;;;;10.38;6.03;;;;;;;20.75;36.22;93841.44;4995926;28;21104;-69
2023/04/01 06:28:45;;;;;;;7.63;5.68;;;;;;;20.40;36.16;93838.69;4989866;28;20638;-68
2023/04/01 06:31:26;;;;;;;13.45;6.00;;;;;;;19.95;37.45;93839.28;4996469;28;20587;-69
2023/04/01 06:34:07;;;;;;;11.63;4.78;;;;;;;19.53;37.37;93829.28;4996891;28;20678;-68
2023/04/01 06:36:53;;;;;;;12.05;5.85;;;;;;;19.39;38.18;93842.50;4996170;28;21079;-70
2023/04/01 06:39:51;;;;;;;13.52;5.50;;;;;;;19.27;38.38;93833.28;4996484;28;20363;-68
2023/04/01 06:42:31;;;;;;;7.57;5.10;;;;;;;18.76;38.97;93839.38;4985694;28;20232;-71
2023/04/01 06:45:13;;;;;;;16.50;5.78;;;;;;;17.93;41.08;93829.19;4996143;28;20228;-67
2023/04/01 06:47:55;;;;;;;11.52;5.10;;;;;;;17.32;42.61;93821.25;4996448;28;20210;-66
2023/04/01 06:50:28;;;;;;;8.27;4.28;;;;;;;17.11;43.29;93820.34;4995581;28;20291;-71
2023/04/01 06:53:02;;;;;;;11.95;5.95;;;;;;;16.72;44.13;93819.97;4995997;28;20685;-71
2023/04/01 06:55:37;;;;;;;5.65;4.70;;;;;;;16.78;44.23;93806.69;4995453;28;20217;-68
2023/04/01 06:58:08;;;;;;;6.57;4.82;;;;;;;16.83;44.77;93791.72;4997117;28;20195;-64
2023/04/01 07:00:38;;;;;;;7.82;5.00;;;;;;;16.69;44.78;93809.13;4995933;28;20994;-70
2023/04/01 07:03:20;;;;;;;8.27;4.97;;;;;;;16.56;45.47;93814.38;4995019;28;20681;-72
2023/04/01 07:05:47;;;;;;;6.25;4.70;;;;;;;16.27;46.28;93809.69;4995716;28;20303;-68
2023/04/01 07:08:19;;;;;;;8.43;5.20;;;;;;;16.30;46.66;93816.34;4996616;28;20339;-67
2023/04/01 07:10:52;;;;;;;9.88;5.10;;;;;;;16.49;46.67;93813.19;4996214;28;20631;-69
2023/04/01 07:13:25;;;;;;;6.68;4.15;;;;;;;16.52;46.77;93788.13;4994814;28;20232;-66
2023/04/01 07:16:02;;;;;;;6.95;3.88;;;;;;;16.49;47.08;93797.81;4995460;28;20430;-67
2023/04/01 07:18:34;;;;;;;10.82;5.47;;;;;;;16.60;47.16;93801.16;4996312;28;20773;-69
2023/04/01 07:21:02;;;;;;;5.75;5.13;;;;;;;16.70;47.32;93811.56;4994980;28;20837;-68
2023/04/01 07:23:33;;;;;;;7.53;4.70;;;;;;;16.69;47.12;93811.69;4996195;28;20214;-71
2023/04/01 07:26:13;;;;;;;7.20;4.47;;;;;;;16.52;47.69;93795.00;4996096;28;20212;-68
2023/04/01 07:28:40;;;;;;;14.02;5.20;;;;;;;16.39;48.36;93791.75;4996088;28;20365;-68
2023/04/01 07:31:19;;;;;;;6.25;4.63;;;;;;;16.36;48.52;93789.41;4994766;28;21023;-69
2023/04/01 07:33:55;;;;;;;9.82;5.25;;;;;;;16.32;48.63;93830.69;4995715;28;20204;-68
2023/04/01 07:36:27;;;;;;;16.42;4.40;;;;;;;16.14;48.40;93821.78;4994708;28;20353;-66
2023/04/01 07:39:05;;;;;;;9.35;4.15;;;;;;;15.74;49.31;93805.19;4995916;28;20310;-67
2023/04/01 07:41:46;;;;;;;9.18;5.25;;;;;;;15.72;49.93;93807.88;4996218;28;20350;-73
2023/04/01 07:44:25;;;;;;;8.38;5.05;;;;;;;15.87;50.01;93816.16;4994480;28;20290;-66
2023/04/01 07:47:07;;;;;;;9.70;5.07;;;;;;;15.93;49.56;93805.47;4995239;28;20242;-65
2023/04/01 07:49:45;;;;;;;7.85;5.03;;;;;;;16.04;49.64;93797.00;4994113;28;20245;-70
2023/04/01 07:52:22;;;;;;;13.40;5.25;;;;;;;16.10;49.36;93792.19;4995013;28;20360;-70
2023/04/01 07:54:54;;;;;;;14.60;5.70;;;;;;;16.13;49.16;93784.28;4994542;28;20242;-67
2023/04/01 07:57:29;;;;;;;9.63;5.22;;;;;;;16.10;49.71;93786.25;4994929;28;20218;-70
2023/04/01 08:00:03;;;;;;;13.95;9.85;;;;;;;16.14;50.07;93782.53;4994820;28;20280;-66
2023/04/01 08:02:44;;;;;;;17.33;7.65;;;;;;;16.14;49.90;93778.22;4995697;28;20204;-71
2023/04/01 08:05:23;;;;;;;9.20;6.30;;;;;;;16.08;50.33;93776.16;4995237;28;20293;-72
2023/04/01 08:08:00;;;;;;;11.32;5.80;;;;;;;16.22;49.89;93775.91;4994702;28;20993;-68
2023/04/01 08:10:34;;;;;;;12.95;6.88;;;;;;;16.29;49.84;93766.81;4995350;28;20208;-69
2023/04/01 08:13:13;;;;;;;12.55;6.13;;;;;;;16.29;49.86;93771.94;4994782;28;20458;-67
2023/04/01 08:15:49;;;;;;;8.00;5.97;;;;;;;16.39;49.80;93760.97;4993651;28;20307;-69
2023/04/01 08:18:28;;;;;;;10.18;5.88;;;;;;;16.51;49.88;93760.06;4995970;28;20204;-66
2023/04/01 08:20:59;;;;;;;14.85;6.70;;;;;;;16.62;49.47;93737.75;4994674;28;20299;-69
2023/04/01 08:23:31;;;;;;;10.07;6.20;;;;;;;16.68;49.03;93728.78;4995244;28;20301;-67
2023/04/01 08:26:03;;;;;;;12.20;5.93;;;;;;;16.90;48.86;93736.44;4992938;28;21164;-71
2023/04/01 08:28:35;;;;;;;22.48;7.65;;;;;;;17.20;48.59;93740.06;4994849;28;20736;-71
2023/04/01 08:31:07;;;;;;;9.98;4.57;;;;;;;17.47;47.85;93730.13;4995665;28;20724;-71
2023/04/01 08:33:34;;;;;;;12.15;5.22;;;;;;;17.92;47.04;93715.28;4993482;28;20715;-69
2023/04/01 08:36:06;;;;;;;9.15;5.78;;;;;;;18.34;45.54;93703.13;4994277;28;20216;-69
2023/04/01 08:38:38;;;;;;;9.60;4.97;;;;;;;19.28;43.91;93693.25;4994837;28;20236;-68
2023/04/01 08:41:21;;;;;;;12.85;5.88;;;;;;;21.60;39.32;93680.81;4996100;28;20228;-70
2023/04/01 08:44:20;;;;;;;13.32;5.60;;;;;;;27.20;30.54;93659.03;4998283;28;20261;-66
2023/04/01 08:47:20;;;;;;;12.93;9.45;;;;;;;32.65;23.18;93654.72;4997251;28;20232;-69
2023/04/01 08:50:24;;;;;;;9.27;4.32;;;;;;;36.06;19.45;93638.25;4998336;28;20208;-64
2023/04/01 08:52:59;;;;;;;8.07;4.90;;;;;;;36.89;18.29;93628.50;4998649;28;20307;-69
2023/04/01 08:55:38;;;;;;;4.13;3.72;;;;;;;36.68;17.83;93632.75;4998114;28;20207;-70
2023/04/01 08:58:42;;;;;;;5.35;3.90;;;;;;;36.90;17.20;93635.41;4999009;28;20208;-69
2023/04/01 09:01:22;;;;;;;7.90;3.90;;;;;;;35.97;17.37;93649.47;4999332;28;20239;-69
2023/04/01 09:04:15;;;;;;;6.47;3.13;;;;;;;33.55;19.45;93660.06;4998298;28;20226;-67
2023/04/01 09:06:51;;;;;;;7.20;3.85;;;;;;;30.90;21.44;93648.63;4997099;28;20212;-67
2023/04/01 09:09:47;;;;;;;5.72;3.85;;;;;;;28.60;24.43;93657.22;4997612;28;20755;-66
2023/04/01 09:12:40;;;;;;;7.35;3.75;;;;;;;26.66;25.98;93646.38;4997626;28;20263;-67
2023/04/01 09:15:31;;;;;;;7.15;3.30;;;;;;;25.13;28.36;93644.31;4998078;28;20299;-71
2023/04/01 09:18:18;;;;;;;6.90;3.17;;;;;;;24.00;29.66;93649.06;4997864;28;20223;-72
2023/04/01 09:21:19;;;;;;;8.60;3.30;;;;;;;23.16;31.32;93646.84;4985080;28;20919;-71
2023/04/01 09:24:23;;;;;;;9.10;3.35;;;;;;;22.45;32.29;93645.56;4999086;28;20639;-66
2023/04/01 09:27:05;;;;;;;10.05;3.60;;;;;;;21.88;33.64;93636.72;4997465;28;20688;-69
2023/04/01 09:29:50;;;;;;;10.45;4.72;;;;;;;21.37;34.50;93617.66;4998075;28;20294;-67
2023/04/01 09:32:37;;;;;;;11.38;3.47;;;;;;;21.03;34.96;93630.47;4996735;28;20252;-66
2023/04/01 09:35:21;;;;;;;8.30;3.80;;;;;;;20.83;35.58;93629.81;4997799;28;20790;-70
2023/04/01 09:37:55;;;;;;;9.60;3.70;;;;;;;20.76;35.74;93628.78;4996995;28;20217;-68
2023/04/01 09:40:32;;;;;;;3.90;3.58;;;;;;;20.62;35.83;93616.38;4997145;28;20761;-68
2023/04/01 09:43:22;;;;;;;5.78;3.47;;;;;;;20.56;36.39;93607.44;4997272;28;20291;-70
2023/04/01 09:46:10;;;;;;;6.07;3.28;;;;;;;20.42;36.59;93594.25;4996474;28;20773;-69
2023/04/01 09:49:07;;;;;;;5.85;3.55;;;;;;;20.47;36.53;93607.53;4996517;28;20331;-67
2023/04/01 09:51:43;;;;;;;6.20;4.10;;;;;;;20.59;36.31;93602.00;4983314;28;20298;-71
2023/04/01 09:54:30;;;;;;;11.57;4.05;;;;;;;20.45;35.98;93586.22;4995394;28;21038;-69
2023/04/01 09:57:35;;;;;;;7.18;3.95;;;;;;;20.41;37.13;93575.38;4997780;28;20605;-68
2023/04/01 10:00:46;;;;;;;5.45;3.97;;;;;;;20.50;36.38;93571.13;4995311;28;20212;-71
2023/04/01 10:04:11;;;;;;;6.60;3.38;;;;;;;20.48;36.09;93573.03;4958260;28;20306;-69
2023/04/01 10:07:14;;;;;;;7.30;3.38;;;;;;;20.45;35.28;93568.16;4996453;28;20232;-67
2023/04/01 10:10:31;;;;;;;5.35;2.60;;;;;;;20.22;34.39;93555.66;4997430;28;20215;-72
2023/04/01 10:13:56;;;;;;;10.75;3.50;;;;;;;20.08;35.78;93547.59;4996145;28;20319;-70
2023/04/01 10:16:36;;;;;;;5.35;2.88;;;;;;;20.12;33.46;93546.34;4914634;29;20302;-68
2023/04/01 10:19:50;;;;;;;6.93;3.30;;;;;;;20.13;34.39;93548.78;4997351;28;20212;-68
2023/04/01 10:22:52;;;;;;;5.28;3.15;;;;;;;19.99;35.96;93533.81;4997828;28;20291;-69
2023/04/01 10:25:58;;;;;;;8.60;4.05;;;;;;;19.52;37.07;93554.53;4996746;28;20711;-71
2023/04/01 10:29:02;;;;;;;5.35;3.47;;;;;;;18.99;37.74;93541.38;4970363;28;20287;-69
2023/04/01 10:32:12;;;;;;;8.02;3.45;;;;;;;18.97;37.94;93533.78;4981293;28;20203;-73
2023/04/01 10:35:04;;;;;;;11.15;3.30;;;;;;;18.88;38.03;93529.44;4983322;28;20297;-69
2023/04/01 10:38:00;;;;;;;8.98;4.10;;;;;;;18.83;38.18;93525.66;4989348;28;20278;-66
2023/04/01 10:40:45;;;;;;;7.38;3.00;;;;;;;18.69;38.11;93526.91;4998674;28;20265;-69
2023/04/01 10:43:52;;;;;;;8.88;3.55;;;;;;;18.20;38.90;93528.66;5000270;28;20262;-68
2023/04/01 10:46:50;;;;;;;9.00;3.17;;;;;;;18.00;40.70;93524.44;4962085;28;20295;-69
2023/04/01 10:49:41;;;;;;;5.00;3.45;;;;;;;17.64;42.54;93511.25;4993630;28;20290;-66
2023/04/01 10:52:47;;;;;;;7.07;3.53;;;;;;;17.35;42.81;93512.88;4993890;28;20227;-71
2023/04/01 10:55:50;;;;;;;12.45;4.18;;;;;;;17.37;43.03;93513.53;4995818;28;20200;-69
2023/04/01 10:58:45;;;;;;;9.30;3.50;;;;;;;17.21;43.20;93514.03;4995132;28;20203;-70
2023/04/01 11:01:50;;;;;;;4.70;3.03;;;;;;;17.25;43.13;93509.47;4959475;28;20298;-73
2023/04/01 11:04:50;;;;;;;5.50;2.70;;;;;;;17.33;42.90;93491.63;4932907;28;20587;-73
2023/04/01 11:08:02;;;;;;;5.30;2.72;;;;;;;17.53;42.17;93493.34;4996377;28;20618;-71
2023/04/01 11:11:03;;;;;;;5.43;3.40;;;;;;;17.64;42.05;93494.97;4911440;29;20792;-66
2023/04/01 11:14:04;;;;;;;8.27;3.83;;;;;;;17.68;41.58;93507.47;4995526;28;20686;-72
2023/04/01 11:16:57;;;;;;;12.52;3.33;;;;;;;17.73;41.84;93513.97;4984991;28;20203;-72
2023/04/01 11:19:53;;;;;;;6.90;3.70;;;;;;;17.89;41.59;93504.78;4995973;28;20252;-70
2023/04/01 11:22:54;;;;;;;4.70;3.55;;;;;;;17.86;41.45;93509.38;4994779;28;20294;-71
2023/04/01 11:25:50;;;;;;;11.75;8.63;;;;;;;17.72;42.04;93527.75;4995621;28;20655;-68
2023/04/01 11:28:46;;;;;;;38.17;20.23;;;;;;;17.75;42.62;93548.06;4995308;28;20267;-70
2023/04/01 11:31:39;;;;;;;5.57;5.10;;;;;;;17.67;43.56;93562.34;4994476;28;20216;-70
2023/04/01 11:34:23;;;;;;;8.80;3.72;;;;;;;17.64;44.89;93598.56;4993910;28;20589;-69
2023/04/01 11:37:03;;;;;;;6.80;2.78;;;;;;;17.40;45.76;93621.13;4994549;28;20204;-69
2023/04/01 11:39:41;;;;;;;7.50;2.58;;;;;;;17.23;50.35;93614.03;4992720;28;20394;-68
2023/04/01 11:42:19;;;;;;;12.70;3.40;;;;;;;17.12;54.72;93667.97;4994981;28;20200;-69
2023/04/01 11:44:58;;;;;;;6.75;2.45;;;;;;;16.77;58.66;93689.59;4995217;28;20215;-69
2023/04/01 11:47:46;;;;;;;11.68;2.20;;;;;;;16.10;62.11;93715.31;4993848;28;20212;-69
2023/04/01 11:50:22;;;;;;;6.63;2.42;;;;;;;15.55;64.43;93719.47;4995250;28;20239;-69
2023/04/01 11:53:17;;;;;;;10.55;2.55;;;;;;;15.20;66.02;93739.13;4995950;28;20579;-71
2023/04/01 11:56:01;;;;;;;8.65;2.90;;;;;;;14.92;67.93;93745.41;4994442;28;20626;-68
2023/04/01 11:58:44;;;;;;;8.25;2.25;;;;;;;14.78;68.99;93760.94;4997496;28;21684;-67
2023/04/01 12:01:26;;;;;;;3.90;1.98;;;;;;;14.72;69.29;93771.56;4993706;28;20625;-66
2023/04/01 12:04:07;;;;;;;8.73;2.50;;;;;;;14.73;69.94;93780.88;4993964;28;20295;-68
2023/04/01 12:06:44;;;;;;;4.93;2.20;;;;;;;14.73;70.22;93775.78;4992313;28;20362;-68
2023/04/01 12:09:18;;;;;;;6.80;3.10;;;;;;;14.68;70.80;93773.53;4994006;28;20689;-71
2023/04/01 12:11:52;;;;;;;7.47;3.00;;;;;;;14.65;71.60;93750.72;4993054;28;20241;-67